Aérodrome :
LOGIN :

S'inscrire | Disclaimer

   EN    FR    IT 

 










Légende :    VFR   VFR Marginal   IFR   IFR Intensif   IFR Très Intensif
Visi : 
Plafond : 
>= 8 km
>= 3000ft
5 à 8 km
1000 à 3000 ft
1500m à 5 km
500 à 1000 ft
800 à 1500m
200 à 500 ft
< 800m
< 200 ft
Symboles :   Orages  Brouillard  Fortes neiges  Fortes précipitations  Vent > 20 kt
SIGMETs :   Divers  Orages  Givrage  Turbulence  Onde Orograph.  Cendres Volcan.






- Altitude de l'aérodrome : 794 ft


LKCV - Čáslav Air Base

DERNIER METAR :
  • 141200Z 18017KT 9999 -RA FEW034 BKN043 04/02 Q0991 NOSIG RMK BLU BLU

METARs EXPIRÉS :
  • 141100Z 16014KT 9999 -RA SCT029 OVC041 05/01 Q0991 NOSIG RMK BLU BLU
  • 141000Z 16009KT 9999 -RA OVC033 04/01 Q0992 NOSIG RMK BLU BLU

TAF TAF LKCV
Valide du 14 à 12h jusqu'au 15 à 12h UTC


141100Z 1412/1512 18014KT 9999 BKN040
TEMPO 1412/1416 7000 RA BKN020
BECMG 1413/1415 27018KT
PROB30
TEMPO 1421/1501 7000 RA BKN020
BECMG 1501/1503 18008KT CAVOK
BECMG 1506/1508 6000 RA BKN015 OVC030



MET'MAP, la Météo Aéronautique d'un coup d'oeil ! - Copyright ORBIFLY Décembre 2007 - Disclaimer

ORBIFLY MET'MAP TEAM :

Programmation & Développement : Alexandra Zaïnal
Sur une idée originale de : Baudouin d'Aumeries
Assistance à la programmation : Marc-Olivier Méhu
Soutien technique & logistique : Manuel Goepfert

Contact : metmap@orbifly.com




SOURCES & CREDITS :

   NOAA